sensor_id;sensor_type;location;lat;lon;timestamp;pressure;altitude;pressure_sealevel;temperature;humidity
63439;BME280;49567;48.958;8.294;2022-12-18T00:00:44;101612.78;;;-5.85;70.67
63439;BME280;49567;48.958;8.294;2022-12-18T00:03:12;101613.75;;;-5.86;70.70
63439;BME280;49567;48.958;8.294;2022-12-18T00:05:46;101616.38;;;-5.86;70.93
63439;BME280;49567;48.958;8.294;2022-12-18T00:08:11;101617.09;;;-5.84;71.01
63439;BME280;49567;48.958;8.294;2022-12-18T00:10:36;101618.22;;;-5.75;71.00
63439;BME280;49567;48.958;8.294;2022-12-18T00:13:02;101611.22;;;-5.63;70.58
63439;BME280;49567;48.958;8.294;2022-12-18T00:15:27;101610.75;;;-5.57;70.96
63439;BME280;49567;48.958;8.294;2022-12-18T00:17:52;101612.00;;;-5.50;70.71
63439;BME280;49567;48.958;8.294;2022-12-18T00:20:17;101610.13;;;-5.85;70.71
63439;BME280;49567;48.958;8.294;2022-12-18T00:22:48;101618.00;;;-6.19;70.86
63439;BME280;49567;48.958;8.294;2022-12-18T00:25:13;101611.34;;;-6.25;72.01
63439;BME280;49567;48.958;8.294;2022-12-18T00:27:39;101616.69;;;-6.14;71.57
63439;BME280;49567;48.958;8.294;2022-12-18T00:30:04;101612.53;;;-6.29;71.41
63439;BME280;49567;48.958;8.294;2022-12-18T00:32:30;101625.94;;;-6.57;71.31
63439;BME280;49567;48.958;8.294;2022-12-18T00:34:55;101625.75;;;-6.67;71.22
63439;BME280;49567;48.958;8.294;2022-12-18T00:37:20;101624.06;;;-6.55;71.01
63439;BME280;49567;48.958;8.294;2022-12-18T00:39:47;101631.75;;;-6.65;71.54
63439;BME280;49567;48.958;8.294;2022-12-18T00:42:13;101641.03;;;-6.47;70.88
63439;BME280;49567;48.958;8.294;2022-12-18T00:44:58;101626.97;;;-6.35;70.48
63439;BME280;49567;48.958;8.294;2022-12-18T00:47:23;101618.63;;;-6.28;70.27
63439;BME280;49567;48.958;8.294;2022-12-18T00:49:55;101620.22;;;-6.26;70.17
63439;BME280;49567;48.958;8.294;2022-12-18T00:52:20;101615.44;;;-6.21;70.72
63439;BME280;49567;48.958;8.294;2022-12-18T00:54:45;101617.88;;;-6.18;70.07
63439;BME280;49567;48.958;8.294;2022-12-18T00:57:11;101619.44;;;-6.15;70.60
63439;BME280;49567;48.958;8.294;2022-12-18T00:59:36;101622.91;;;-6.15;70.25
63439;BME280;49567;48.958;8.294;2022-12-18T01:02:01;101621.84;;;-6.12;70.47
63439;BME280;49567;48.958;8.294;2022-12-18T01:04:26;101620.06;;;-6.12;70.21
63439;BME280;49567;48.958;8.294;2022-12-18T01:06:52;101625.56;;;-6.15;70.38
63439;BME280;49567;48.958;8.294;2022-12-18T01:09:17;101622.91;;;-6.15;70.36
63439;BME280;49567;48.958;8.294;2022-12-18T01:11:42;101621.25;;;-6.16;70.55
63439;BME280;49567;48.958;8.294;2022-12-18T01:14:08;101626.19;;;-6.11;70.65
63439;BME280;49567;48.958;8.294;2022-12-18T01:16:33;101624.28;;;-6.09;70.09
63439;BME280;49567;48.958;8.294;2022-12-18T01:19:02;101621.44;;;-6.06;70.42
63439;BME280;49567;48.958;8.294;2022-12-18T01:21:27;101615.09;;;-6.04;70.37
63439;BME280;49567;48.958;8.294;2022-12-18T01:23:56;101617.38;;;-5.99;69.98
63439;BME280;49567;48.958;8.294;2022-12-18T01:26:22;101618.22;;;-5.99;70.36
63439;BME280;49567;48.958;8.294;2022-12-18T01:28:47;101601.53;;;-5.99;70.35
63439;BME280;49567;48.958;8.294;2022-12-18T01:31:26;101596.88;;;-5.96;70.29
63439;BME280;49567;48.958;8.294;2022-12-18T01:33:52;101621.38;;;-5.94;70.15
63439;BME280;49567;48.958;8.294;2022-12-18T01:36:32;101628.34;;;-5.93;69.97
63439;BME280;49567;48.958;8.294;2022-12-18T01:39:03;101633.97;;;-5.97;70.11
63439;BME280;49567;48.958;8.294;2022-12-18T01:41:31;101625.91;;;-5.96;70.11
63439;BME280;49567;48.958;8.294;2022-12-18T01:47:23;101641.44;;;-5.91;70.32
63439;BME280;49567;48.958;8.294;2022-12-18T01:49:50;101631.72;;;-5.91;69.98
63439;BME280;49567;48.958;8.294;2022-12-18T01:52:17;101619.47;;;-5.92;69.96
63439;BME280;49567;48.958;8.294;2022-12-18T01:54:43;101618.53;;;-5.91;70.56
63439;BME280;49567;48.958;8.294;2022-12-18T01:57:09;101615.97;;;-5.92;70.15
63439;BME280;49567;48.958;8.294;2022-12-18T01:59:35;101623.28;;;-5.96;70.25
63439;BME280;49567;48.958;8.294;2022-12-18T02:02:02;101625.19;;;-5.98;70.28
63439;BME280;49567;48.958;8.294;2022-12-18T02:04:28;101623.50;;;-5.99;70.69
63439;BME280;49567;48.958;8.294;2022-12-18T02:07:14;101623.09;;;-6.05;70.27
63439;BME280;49567;48.958;8.294;2022-12-18T02:18:33;101647.19;;;-6.10;70.29
63439;BME280;49567;48.958;8.294;2022-12-18T02:26:15;101632.34;;;-6.23;69.96
63439;BME280;49567;48.958;8.294;2022-12-18T02:28:49;101631.53;;;-6.37;70.90
63439;BME280;49567;48.958;8.294;2022-12-18T02:31:21;101642.25;;;-6.27;70.16
63439;BME280;49567;48.958;8.294;2022-12-18T02:33:49;101636.59;;;-6.34;70.50
63439;BME280;49567;48.958;8.294;2022-12-18T02:36:17;101634.56;;;-6.30;70.48
63439;BME280;49567;48.958;8.294;2022-12-18T02:38:44;101630.56;;;-6.23;70.20
63439;BME280;49567;48.958;8.294;2022-12-18T02:41:11;101632.13;;;-6.20;70.36
63439;BME280;49567;48.958;8.294;2022-12-18T02:43:38;101634.63;;;-6.19;70.14
63439;BME280;49567;48.958;8.294;2022-12-18T02:46:25;101638.03;;;-6.17;70.33
63439;BME280;49567;48.958;8.294;2022-12-18T02:48:55;101624.00;;;-6.17;70.47
63439;BME280;49567;48.958;8.294;2022-12-18T02:51:44;101622.19;;;-6.17;70.41
63439;BME280;49567;48.958;8.294;2022-12-18T02:54:23;101628.31;;;-6.16;70.14
63439;BME280;49567;48.958;8.294;2022-12-18T02:56:54;101629.16;;;-6.16;70.53
63439;BME280;49567;48.958;8.294;2022-12-18T02:59:54;101638.97;;;-6.18;70.49
63439;BME280;49567;48.958;8.294;2022-12-18T03:02:58;101655.16;;;-6.22;70.37
63439;BME280;49567;48.958;8.294;2022-12-18T03:05:33;101649.88;;;-6.22;70.13
63439;BME280;49567;48.958;8.294;2022-12-18T03:08:24;101650.81;;;-6.23;70.31
63439;BME280;49567;48.958;8.294;2022-12-18T03:10:58;101645.63;;;-6.25;70.20
63439;BME280;49567;48.958;8.294;2022-12-18T03:13:31;101647.63;;;-6.28;70.03
63439;BME280;49567;48.958;8.294;2022-12-18T03:15:59;101642.47;;;-6.30;69.99
63439;BME280;49567;48.958;8.294;2022-12-18T03:18:33;101649.47;;;-6.29;69.79
63439;BME280;49567;48.958;8.294;2022-12-18T03:21:02;101649.66;;;-6.32;69.91
63439;BME280;49567;48.958;8.294;2022-12-18T03:23:34;101655.13;;;-6.35;69.46
63439;BME280;49567;48.958;8.294;2022-12-18T03:26:06;101651.78;;;-6.37;69.73
63439;BME280;49567;48.958;8.294;2022-12-18T03:28:35;101653.56;;;-6.38;69.44
63439;BME280;49567;48.958;8.294;2022-12-18T03:31:03;101652.09;;;-6.42;69.60
63439;BME280;49567;48.958;8.294;2022-12-18T03:33:37;101650.50;;;-6.44;69.50
63439;BME280;49567;48.958;8.294;2022-12-18T03:36:03;101645.78;;;-6.39;69.47
63439;BME280;49567;48.958;8.294;2022-12-18T03:38:29;101644.94;;;-6.40;69.81
63439;BME280;49567;48.958;8.294;2022-12-18T03:43:45;101643.66;;;-6.34;69.42
63439;BME280;49567;48.958;8.294;2022-12-18T03:46:20;101637.66;;;-6.36;69.24
63439;BME280;49567;48.958;8.294;2022-12-18T03:49:35;101636.59;;;-6.34;69.59
63439;BME280;49567;48.958;8.294;2022-12-18T03:52:07;101618.00;;;-6.32;69.80
63439;BME280;49567;48.958;8.294;2022-12-18T03:54:35;101625.72;;;-6.42;69.64
63439;BME280;49567;48.958;8.294;2022-12-18T03:57:06;101630.78;;;-6.39;69.79
63439;BME280;49567;48.958;8.294;2022-12-18T03:59:33;101634.16;;;-6.37;69.70
63439;BME280;49567;48.958;8.294;2022-12-18T04:02:01;101626.88;;;-6.33;69.59
63439;BME280;49567;48.958;8.294;2022-12-18T04:04:28;101625.72;;;-6.29;70.00
63439;BME280;49567;48.958;8.294;2022-12-18T04:06:55;101625.50;;;-6.26;69.47
63439;BME280;49567;48.958;8.294;2022-12-18T04:09:21;101631.28;;;-6.21;69.64
63439;BME280;49567;48.958;8.294;2022-12-18T04:11:47;101637.81;;;-6.14;69.81
63439;BME280;49567;48.958;8.294;2022-12-18T04:14:13;101639.91;;;-6.06;69.65
63439;BME280;49567;48.958;8.294;2022-12-18T04:16:38;101636.69;;;-5.99;69.55
63439;BME280;49567;48.958;8.294;2022-12-18T04:19:04;101635.31;;;-5.92;69.83
63439;BME280;49567;48.958;8.294;2022-12-18T04:21:29;101622.47;;;-5.85;70.12
63439;BME280;49567;48.958;8.294;2022-12-18T04:23:55;101627.44;;;-5.81;70.01
63439;BME280;49567;48.958;8.294;2022-12-18T04:26:20;101627.84;;;-5.74;70.45
63439;BME280;49567;48.958;8.294;2022-12-18T04:28:45;101625.81;;;-5.70;70.82
63439;BME280;49567;48.958;8.294;2022-12-18T04:31:11;101619.22;;;-5.65;70.80
63439;BME280;49567;48.958;8.294;2022-12-18T04:33:36;101628.63;;;-5.61;71.16
63439;BME280;49567;48.958;8.294;2022-12-18T04:36:01;101627.22;;;-5.54;71.16
63439;BME280;49567;48.958;8.294;2022-12-18T04:38:27;101632.13;;;-5.49;71.43
63439;BME280;49567;48.958;8.294;2022-12-18T04:40:52;101639.97;;;-5.48;71.96
63439;BME280;49567;48.958;8.294;2022-12-18T04:43:17;101640.69;;;-5.46;71.78
63439;BME280;49567;48.958;8.294;2022-12-18T04:45:42;101641.91;;;-5.39;72.17
63439;BME280;49567;48.958;8.294;2022-12-18T04:48:08;101633.03;;;-5.38;72.38
63439;BME280;49567;48.958;8.294;2022-12-18T04:50:33;101631.34;;;-5.39;72.57
63439;BME280;49567;48.958;8.294;2022-12-18T04:52:58;101630.63;;;-5.41;72.99
63439;BME280;49567;48.958;8.294;2022-12-18T04:55:24;101632.81;;;-5.35;73.09
63439;BME280;49567;48.958;8.294;2022-12-18T04:57:49;101639.66;;;-5.32;73.00
63439;BME280;49567;48.958;8.294;2022-12-18T05:00:15;101639.44;;;-5.29;73.16
63439;BME280;49567;48.958;8.294;2022-12-18T05:02:40;101642.59;;;-5.24;72.99
63439;BME280;49567;48.958;8.294;2022-12-18T05:05:06;101642.59;;;-5.24;73.42
63439;BME280;49567;48.958;8.294;2022-12-18T05:07:31;101641.75;;;-5.25;73.94
63439;BME280;49567;48.958;8.294;2022-12-18T05:09:56;101655.66;;;-5.22;73.60
63439;BME280;49567;48.958;8.294;2022-12-18T05:12:21;101654.81;;;-5.23;73.85
63439;BME280;49567;48.958;8.294;2022-12-18T05:14:47;101659.78;;;-5.18;74.27
63439;BME280;49567;48.958;8.294;2022-12-18T05:17:12;101656.19;;;-5.17;73.85
63439;BME280;49567;48.958;8.294;2022-12-18T05:19:37;101655.22;;;-5.16;74.75
63439;BME280;49567;48.958;8.294;2022-12-18T05:22:03;101646.94;;;-5.12;74.33
63439;BME280;49567;48.958;8.294;2022-12-18T05:24:28;101651.16;;;-5.09;74.59
63439;BME280;49567;48.958;8.294;2022-12-18T05:26:53;101653.78;;;-5.09;74.66
63439;BME280;49567;48.958;8.294;2022-12-18T05:29:19;101645.16;;;-5.11;74.37
63439;BME280;49567;48.958;8.294;2022-12-18T05:31:44;101642.13;;;-5.07;74.43
63439;BME280;49567;48.958;8.294;2022-12-18T05:34:09;101649.63;;;-5.01;74.38
63439;BME280;49567;48.958;8.294;2022-12-18T05:36:34;101645.91;;;-4.98;74.66
63439;BME280;49567;48.958;8.294;2022-12-18T05:39:00;101651.06;;;-4.97;74.15
63439;BME280;49567;48.958;8.294;2022-12-18T05:41:26;101638.34;;;-4.92;74.75
63439;BME280;49567;48.958;8.294;2022-12-18T05:43:51;101638.34;;;-4.92;74.54
63439;BME280;49567;48.958;8.294;2022-12-18T05:46:17;101644.25;;;-4.88;74.25
63439;BME280;49567;48.958;8.294;2022-12-18T05:48:44;101647.38;;;-4.94;74.21
63439;BME280;49567;48.958;8.294;2022-12-18T05:51:11;101651.06;;;-4.97;74.93
63439;BME280;49567;48.958;8.294;2022-12-18T05:53:37;101647.38;;;-4.94;75.15
63439;BME280;49567;48.958;8.294;2022-12-18T05:56:05;101652.53;;;-4.93;74.94
63439;BME280;49567;48.958;8.294;2022-12-18T05:58:32;101656.34;;;-4.97;74.77
63439;BME280;49567;48.958;8.294;2022-12-18T06:00:58;101659.13;;;-4.98;75.03
63439;BME280;49567;48.958;8.294;2022-12-18T06:03:30;101660.69;;;-4.96;74.95
63439;BME280;49567;48.958;8.294;2022-12-18T06:05:55;101663.56;;;-4.99;75.47
63439;BME280;49567;48.958;8.294;2022-12-18T06:08:20;101658.19;;;-4.97;75.14
63439;BME280;49567;48.958;8.294;2022-12-18T06:10:50;101665.75;;;-4.93;75.38
63439;BME280;49567;48.958;8.294;2022-12-18T06:13:16;101669.59;;;-4.86;75.30
63439;BME280;49567;48.958;8.294;2022-12-18T06:15:41;101669.28;;;-4.81;75.18
63439;BME280;49567;48.958;8.294;2022-12-18T06:18:07;101676.13;;;-4.79;74.94
63439;BME280;49567;48.958;8.294;2022-12-18T06:20:32;101674.44;;;-4.80;75.32
63439;BME280;49567;48.958;8.294;2022-12-18T06:22:57;101683.09;;;-4.78;75.43
63439;BME280;49567;48.958;8.294;2022-12-18T06:25:23;101684.06;;;-4.79;75.14
63439;BME280;49567;48.958;8.294;2022-12-18T06:27:48;101689.09;;;-4.76;75.16
63439;BME280;49567;48.958;8.294;2022-12-18T06:30:13;101693.31;;;-4.73;75.40
63439;BME280;49567;48.958;8.294;2022-12-18T06:32:39;101696.69;;;-4.71;74.99
63439;BME280;49567;48.958;8.294;2022-12-18T06:35:04;101698.59;;;-4.73;75.60
63439;BME280;49567;48.958;8.294;2022-12-18T06:37:30;101699.78;;;-4.77;75.61
63439;BME280;49567;48.958;8.294;2022-12-18T06:39:56;101705.06;;;-4.77;75.65
63439;BME280;49567;48.958;8.294;2022-12-18T06:42:22;101702.44;;;-4.77;75.68
63439;BME280;49567;48.958;8.294;2022-12-18T06:44:47;101717.34;;;-4.76;75.88
63439;BME280;49567;48.958;8.294;2022-12-18T06:47:13;101706.34;;;-4.94;75.92
63439;BME280;49567;48.958;8.294;2022-12-18T06:49:38;101705.84;;;-4.99;76.61
63439;BME280;49567;48.958;8.294;2022-12-18T06:52:03;101707.81;;;-4.90;76.55
63439;BME280;49567;48.958;8.294;2022-12-18T06:54:28;101710.81;;;-4.94;76.38
63439;BME280;49567;48.958;8.294;2022-12-18T06:56:54;101715.09;;;-5.04;76.70
63439;BME280;49567;48.958;8.294;2022-12-18T06:59:19;101717.66;;;-4.92;76.76
63439;BME280;49567;48.958;8.294;2022-12-18T07:01:44;101704.34;;;-4.79;76.58
63439;BME280;49567;48.958;8.294;2022-12-18T07:04:10;101708.81;;;-4.80;76.14
63439;BME280;49567;48.958;8.294;2022-12-18T07:06:35;101714.66;;;-4.87;76.33
63439;BME280;49567;48.958;8.294;2022-12-18T07:09:00;101715.19;;;-5.06;76.59
63439;BME280;49567;48.958;8.294;2022-12-18T07:11:25;101724.38;;;-4.99;77.44
63439;BME280;49567;48.958;8.294;2022-12-18T07:13:52;101723.19;;;-4.84;76.85
63439;BME280;49567;48.958;8.294;2022-12-18T07:16:19;101712.66;;;-4.73;76.61
63439;BME280;49567;48.958;8.294;2022-12-18T07:18:45;101717.47;;;-4.78;76.41
63439;BME280;49567;48.958;8.294;2022-12-18T07:21:13;101720.28;;;-4.68;76.81
63439;BME280;49567;48.958;8.294;2022-12-18T07:23:38;101718.09;;;-4.63;76.13
63439;BME280;49567;48.958;8.294;2022-12-18T07:26:09;101713.44;;;-4.59;76.35
63439;BME280;49567;48.958;8.294;2022-12-18T07:28:35;101717.28;;;-4.52;75.96
63439;BME280;49567;48.958;8.294;2022-12-18T07:31:05;101716.34;;;-4.51;76.21
63439;BME280;49567;48.958;8.294;2022-12-18T07:33:32;101716.53;;;-4.54;76.57
63439;BME280;49567;48.958;8.294;2022-12-18T07:35:59;101727.88;;;-4.52;76.58
63439;BME280;49567;48.958;8.294;2022-12-18T07:38:24;101731.00;;;-4.47;76.13
63439;BME280;49567;48.958;8.294;2022-12-18T07:40:49;101735.34;;;-4.46;76.36
63439;BME280;49567;48.958;8.294;2022-12-18T07:43:14;101741.47;;;-4.46;75.88
63439;BME280;49567;48.958;8.294;2022-12-18T07:45:40;101735.34;;;-4.46;76.18
63439;BME280;49567;48.958;8.294;2022-12-18T07:48:05;101735.09;;;-4.43;76.10
63439;BME280;49567;48.958;8.294;2022-12-18T07:50:30;101739.69;;;-4.45;76.09
63439;BME280;49567;48.958;8.294;2022-12-18T07:52:55;101748.22;;;-4.42;76.26
63439;BME280;49567;48.958;8.294;2022-12-18T07:55:21;101753.53;;;-4.42;76.23
63439;BME280;49567;48.958;8.294;2022-12-18T07:57:46;101752.78;;;-4.44;76.26
63439;BME280;49567;48.958;8.294;2022-12-18T08:00:12;101754.38;;;-4.41;76.16
63439;BME280;49567;48.958;8.294;2022-12-18T08:02:37;101752.19;;;-4.36;76.18
63439;BME280;49567;48.958;8.294;2022-12-18T08:05:03;101761.47;;;-4.31;76.28
63439;BME280;49567;48.958;8.294;2022-12-18T08:07:28;101757.75;;;-4.28;75.90
63439;BME280;49567;48.958;8.294;2022-12-18T08:09:54;101753.28;;;-4.28;76.39
63439;BME280;49567;48.958;8.294;2022-12-18T08:12:19;101768.34;;;-4.28;75.90
63439;BME280;49567;48.958;8.294;2022-12-18T08:14:44;101759.31;;;-4.26;76.64
63439;BME280;49567;48.958;8.294;2022-12-18T08:17:09;101769.28;;;-4.29;76.14
63439;BME280;49567;48.958;8.294;2022-12-18T08:19:35;101765.56;;;-4.27;75.77
63439;BME280;49567;48.958;8.294;2022-12-18T08:22:00;101768.91;;;-4.36;76.39
63439;BME280;49567;48.958;8.294;2022-12-18T08:24:25;101770.06;;;-4.51;76.83
63439;BME280;49567;48.958;8.294;2022-12-18T08:26:51;101765.75;;;-4.52;77.17
63439;BME280;49567;48.958;8.294;2022-12-18T08:29:16;101753.84;;;-4.46;77.33
63439;BME280;49567;48.958;8.294;2022-12-18T08:31:41;101754.50;;;-4.32;76.71
63439;BME280;49567;48.958;8.294;2022-12-18T08:34:07;101756.44;;;-4.23;76.53
63439;BME280;49567;48.958;8.294;2022-12-18T08:36:33;101747.50;;;-4.33;76.09
63439;BME280;49567;48.958;8.294;2022-12-18T08:38:58;101744.59;;;-4.41;76.71
63439;BME280;49567;48.958;8.294;2022-12-18T08:41:23;101735.47;;;-4.37;76.68
63439;BME280;49567;48.958;8.294;2022-12-18T08:43:49;101733.09;;;-4.29;76.85
63439;BME280;49567;48.958;8.294;2022-12-18T08:46:41;101727.31;;;-4.23;76.19
63439;BME280;49567;48.958;8.294;2022-12-18T08:49:08;101720.22;;;-4.22;76.71
63439;BME280;49567;48.958;8.294;2022-12-18T08:51:34;101714.91;;;-4.11;76.61
63439;BME280;49567;48.958;8.294;2022-12-18T08:54:00;101714.31;;;-4.03;76.13
63439;BME280;49567;48.958;8.294;2022-12-18T08:56:25;101716.63;;;-3.99;76.05
63439;BME280;49567;48.958;8.294;2022-12-18T08:58:52;101708.53;;;-3.97;75.98
63439;BME280;49567;48.958;8.294;2022-12-18T09:01:17;101718.78;;;-3.93;76.04
63439;BME280;49567;48.958;8.294;2022-12-18T09:03:43;101713.38;;;-4.13;75.92
63439;BME280;49567;48.958;8.294;2022-12-18T09:06:15;101706.13;;;-4.11;76.52
63439;BME280;49567;48.958;8.294;2022-12-18T09:08:42;101712.28;;;-4.11;76.37
63439;BME280;49567;48.958;8.294;2022-12-18T09:11:18;101717.47;;;-4.09;76.33
63439;BME280;49567;48.958;8.294;2022-12-18T09:13:44;101723.34;;;-4.06;76.06
63439;BME280;49567;48.958;8.294;2022-12-18T09:16:09;101731.19;;;-4.15;76.41
63439;BME280;49567;48.958;8.294;2022-12-18T09:18:35;101725.75;;;-4.25;76.02
63439;BME280;49567;48.958;8.294;2022-12-18T09:21:14;101733.31;;;-4.43;77.10
63439;BME280;49567;48.958;8.294;2022-12-18T09:23:40;101733.50;;;-4.57;77.46
63439;BME280;49567;48.958;8.294;2022-12-18T09:26:05;101741.94;;;-4.52;77.79
63439;BME280;49567;48.958;8.294;2022-12-18T09:28:31;101742.69;;;-4.28;77.76
63439;BME280;49567;48.958;8.294;2022-12-18T09:30:56;101747.28;;;-4.07;77.14
63439;BME280;49567;48.958;8.294;2022-12-18T09:33:21;101762.94;;;-3.93;76.26
63439;BME280;49567;48.958;8.294;2022-12-18T09:35:47;101777.41;;;-3.86;75.93
63439;BME280;49567;48.958;8.294;2022-12-18T09:38:17;101763.91;;;-3.83;75.95
63439;BME280;49567;48.958;8.294;2022-12-18T09:40:51;101751.88;;;-3.87;76.01
63439;BME280;49567;48.958;8.294;2022-12-18T09:43:40;101758.25;;;-4.01;76.00
63439;BME280;49567;48.958;8.294;2022-12-18T09:46:11;101759.31;;;-4.14;76.46
63439;BME280;49567;48.958;8.294;2022-12-18T09:48:42;101761.25;;;-4.16;76.66
63439;BME280;49567;48.958;8.294;2022-12-18T09:51:25;101765.22;;;-4.22;77.25
63439;BME280;49567;48.958;8.294;2022-12-18T09:54:06;101781.94;;;-4.22;77.05
63439;BME280;49567;48.958;8.294;2022-12-18T09:56:40;101779.44;;;-4.01;76.87
63439;BME280;49567;48.958;8.294;2022-12-18T09:59:24;101795.31;;;-4.12;76.78
63439;BME280;49567;48.958;8.294;2022-12-18T10:01:51;101792.44;;;-3.98;76.69
63439;BME280;49567;48.958;8.294;2022-12-18T10:04:16;101778.13;;;-3.84;76.40
63439;BME280;49567;48.958;8.294;2022-12-18T10:06:46;101792.69;;;-3.90;76.24
63439;BME280;49567;48.958;8.294;2022-12-18T10:12:34;101789.09;;;-3.89;76.37
63439;BME280;49567;48.958;8.294;2022-12-18T10:15:19;101779.56;;;-3.69;76.05
63439;BME280;49567;48.958;8.294;2022-12-18T10:17:59;101778.69;;;-3.58;75.75
63439;BME280;49567;48.958;8.294;2022-12-18T10:20:38;101778.72;;;-3.70;76.06
63439;BME280;49567;48.958;8.294;2022-12-18T10:23:28;101767.41;;;-3.60;75.50
63439;BME280;49567;48.958;8.294;2022-12-18T10:26:02;101760.41;;;-3.61;75.46
63439;BME280;49567;48.958;8.294;2022-12-18T10:28:29;101758.84;;;-3.53;75.46
63439;BME280;49567;48.958;8.294;2022-12-18T10:30:55;101774.72;;;-3.42;75.36
63439;BME280;49567;48.958;8.294;2022-12-18T10:33:22;101763.50;;;-3.34;75.39
63439;BME280;49567;48.958;8.294;2022-12-18T10:35:51;101755.06;;;-3.28;75.08
63439;BME280;49567;48.958;8.294;2022-12-18T10:43:22;101763.41;;;-3.55;75.59
63439;BME280;49567;48.958;8.294;2022-12-18T10:46:02;101767.50;;;-3.40;75.42
63439;BME280;49567;48.958;8.294;2022-12-18T10:48:31;101763.00;;;-3.28;74.94
63439;BME280;49567;48.958;8.294;2022-12-18T10:50:57;101755.09;;;-3.39;74.93
63439;BME280;49567;48.958;8.294;2022-12-18T10:53:28;101738.31;;;-3.29;75.41
63439;BME280;49567;48.958;8.294;2022-12-18T10:55:57;101734.66;;;-3.17;74.98
63439;BME280;49567;48.958;8.294;2022-12-18T10:58:26;101737.53;;;-3.08;74.34
63439;BME280;49567;48.958;8.294;2022-12-18T11:03:32;101753.56;;;-3.10;74.88
63439;BME280;49567;48.958;8.294;2022-12-18T11:06:12;101747.41;;;-3.10;74.11
63439;BME280;49567;48.958;8.294;2022-12-18T11:08:39;101759.66;;;-2.98;74.42
63439;BME280;49567;48.958;8.294;2022-12-18T11:11:14;101752.78;;;-2.90;73.91
63439;BME280;49567;48.958;8.294;2022-12-18T11:13:51;101751.53;;;-2.86;73.95
63439;BME280;49567;48.958;8.294;2022-12-18T11:16:19;101755.03;;;-2.85;74.01
63439;BME280;49567;48.958;8.294;2022-12-18T11:18:45;101750.69;;;-2.86;74.46
63439;BME280;49567;48.958;8.294;2022-12-18T11:21:12;101755.50;;;-2.80;74.55
63439;BME280;49567;48.958;8.294;2022-12-18T11:23:47;101756.91;;;-2.76;74.24
63439;BME280;49567;48.958;8.294;2022-12-18T11:26:14;101746.56;;;-2.79;73.73
63439;BME280;49567;48.958;8.294;2022-12-18T11:29:09;101731.97;;;-3.05;74.15
63439;BME280;49567;48.958;8.294;2022-12-18T11:31:35;101733.31;;;-3.11;75.08
63439;BME280;49567;48.958;8.294;2022-12-18T11:34:12;101740.84;;;-2.95;74.80
63439;BME280;49567;48.958;8.294;2022-12-18T11:36:44;101737.94;;;-2.92;74.37
63439;BME280;49567;48.958;8.294;2022-12-18T11:39:19;101737.94;;;-2.92;74.76
63439;BME280;49567;48.958;8.294;2022-12-18T11:42:04;101740.22;;;-2.88;74.76
63439;BME280;49567;48.958;8.294;2022-12-18T11:44:59;101736.47;;;-2.85;74.13
63439;BME280;49567;48.958;8.294;2022-12-18T11:47:37;101720.44;;;-2.84;74.48
63439;BME280;49567;48.958;8.294;2022-12-18T11:50:12;101714.63;;;-2.78;73.93
63439;BME280;49567;48.958;8.294;2022-12-18T11:52:39;101720.25;;;-2.71;74.29
63439;BME280;49567;48.958;8.294;2022-12-18T12:07:21;101683.91;;;-2.50;72.88
63439;BME280;49567;48.958;8.294;2022-12-18T12:10:02;101685.81;;;-2.41;72.60
63439;BME280;49567;48.958;8.294;2022-12-18T12:13:06;101680.34;;;-2.39;72.77
63439;BME280;49567;48.958;8.294;2022-12-18T12:15:51;101695.31;;;-2.38;72.11
63439;BME280;49567;48.958;8.294;2022-12-18T12:20:59;101690.47;;;-2.24;72.38
63439;BME280;49567;48.958;8.294;2022-12-18T12:23:50;101689.56;;;-2.13;71.97
63439;BME280;49567;48.958;8.294;2022-12-18T12:26:30;101698.09;;;-2.10;71.57
63439;BME280;49567;48.958;8.294;2022-12-18T12:35:03;101700.69;;;-1.98;71.30
63439;BME280;49567;48.958;8.294;2022-12-18T12:38:10;101699.88;;;-1.89;71.18
63439;BME280;49567;48.958;8.294;2022-12-18T12:40:45;101693.72;;;-1.90;70.95
63439;BME280;49567;48.958;8.294;2022-12-18T12:43:45;101699.56;;;-1.96;71.09
63439;BME280;49567;48.958;8.294;2022-12-18T12:46:16;101704.59;;;-1.93;71.56
63439;BME280;49567;48.958;8.294;2022-12-18T12:48:57;101702.66;;;-1.91;71.52
63439;BME280;49567;48.958;8.294;2022-12-18T12:51:34;101694.69;;;-1.91;71.49
63439;BME280;49567;48.958;8.294;2022-12-18T12:54:02;101692.03;;;-1.91;71.59
63439;BME280;49567;48.958;8.294;2022-12-18T12:59:21;101678.50;;;-1.88;71.38
63439;BME280;49567;48.958;8.294;2022-12-18T13:02:23;101671.50;;;-1.89;72.05
63439;BME280;49567;48.958;8.294;2022-12-18T13:05:14;101668.25;;;-1.92;71.71
63439;BME280;49567;48.958;8.294;2022-12-18T13:08:00;101651.47;;;-1.93;71.88
63439;BME280;49567;48.958;8.294;2022-12-18T13:10:31;101657.63;;;-1.92;71.74
63439;BME280;49567;48.958;8.294;2022-12-18T13:16:03;101645.59;;;-1.96;72.06
63439;BME280;49567;48.958;8.294;2022-12-18T13:18:28;101633.28;;;-1.97;71.99
63439;BME280;49567;48.958;8.294;2022-12-18T13:25:48;101635.41;;;-1.91;71.76
63439;BME280;49567;48.958;8.294;2022-12-18T13:28:59;101633.06;;;-1.85;71.63
63439;BME280;49567;48.958;8.294;2022-12-18T13:31:00;101620.88;;;-1.87;71.80
63439;BME280;49567;48.958;8.294;2022-12-18T13:38:43;101614.03;;;-1.80;71.92
63439;BME280;49567;48.958;8.294;2022-12-18T13:43:41;101619.50;;;-1.82;71.67
63439;BME280;49567;48.958;8.294;2022-12-18T13:46:27;101615.28;;;-1.84;71.69
63439;BME280;49567;48.958;8.294;2022-12-18T13:49:05;101612.06;;;-1.88;71.75
63439;BME280;49567;48.958;8.294;2022-12-18T13:51:44;101614.47;;;-1.85;71.67
63439;BME280;49567;48.958;8.294;2022-12-18T13:54:30;101613.72;;;-1.87;71.35
63439;BME280;49567;48.958;8.294;2022-12-18T13:56:58;101608.56;;;-1.88;71.77
63439;BME280;49567;48.958;8.294;2022-12-18T13:59:34;101604.09;;;-1.88;71.46
63439;BME280;49567;48.958;8.294;2022-12-18T14:02:15;101604.22;;;-1.89;71.63
63439;BME280;49567;48.958;8.294;2022-12-18T14:04:41;101602.81;;;-1.93;71.43
63439;BME280;49567;48.958;8.294;2022-12-18T14:07:26;101610.22;;;-1.97;71.98
63439;BME280;49567;48.958;8.294;2022-12-18T14:09:58;101600.88;;;-2.01;72.54
63439;BME280;49567;48.958;8.294;2022-12-18T14:12:31;101602.22;;;-2.06;72.84
63439;BME280;49567;48.958;8.294;2022-12-18T14:18:08;101601.81;;;-2.02;72.21